Skip Navigation Links Skip Navigation Links

Current Weather

Mc Kinley National Park, Mc Kinley Park, Alaska

For information only: do not use for flight planning or navigation.
Latest weather
Observation time Tuesday, October 26, 2021 10:56 PM AKDT
Local time Tuesday, October 26, 2021 11:11 PM AKDT
Flight conditions Marginal Visual Meteorological Conditions
Winds
Wind speed calm
Visibility 9 mi.
Present weather light snow
Sky condition
Ceiling 2,500 ft. overcast
Cloud layer few clouds 700 ft.
Cloud layer overcast 2,500 ft.
Temperature 23°F
Dewpoint 20°F
Altimeter 29.35 in.Hg
Precipitation
Precipitation last hour trace
Derived measurements
Relative humidity 88%
Wind chill 23°F
Density altitude -24 ft.
Remarks
Fully automated report.
Automated weather observing station with precipitation discriminator.
Sea-level-pressure sensor not operating.
Freezing rain sensor not operating.
METAR PAIN 270656Z AUTO 00000KT 9SM -SN FEW007 OVC025 M05/M07 A2935 RMK AO2 SLPNO P0000 T10501067 FZRANO

Settings

Location code

InnerDrive.Weather 4.0.6770.0 Release CLR 4.0.30319.42000
Copyright ©2018 Inner Drive Technology. All rights reserved. Portions Copyright ©1986-2018 David Braverman.

Find weather

Site navigation


Skip Navigation Links

Place info

Page info

PayPal - The safer, easier way to pay online!

Return home.

Copyright ©2021 Inner Drive Technology. Purveyors of fine, hand-crafted computer software. Page printed 2021-10-27T07:11:20 UTC.